sensor_id;sensor_type;location;lat;lon;timestamp;P1;durP1;ratioP1;P2;durP2;ratioP2
15266;SDS011;7735;49.144;8.668;2022-08-11T00:01:36;4.63;;;2.60;;
15266;SDS011;7735;49.144;8.668;2022-08-11T00:04:10;4.57;;;2.10;;
15266;SDS011;7735;49.144;8.668;2022-08-11T00:06:38;5.23;;;2.50;;
15266;SDS011;7735;49.144;8.668;2022-08-11T00:09:07;3.33;;;2.10;;
15266;SDS011;7735;49.144;8.668;2022-08-11T00:11:36;3.17;;;2.00;;
15266;SDS011;7735;49.144;8.668;2022-08-11T00:14:12;3.80;;;2.50;;
15266;SDS011;7735;49.144;8.668;2022-08-11T00:16:42;3.87;;;2.33;;
15266;SDS011;7735;49.144;8.668;2022-08-11T00:19:19;2.63;;;2.17;;
15266;SDS011;7735;49.144;8.668;2022-08-11T00:21:47;2.80;;;2.27;;
15266;SDS011;7735;49.144;8.668;2022-08-11T00:24:14;4.43;;;2.23;;
15266;SDS011;7735;49.144;8.668;2022-08-11T00:26:45;2.63;;;2.27;;
15266;SDS011;7735;49.144;8.668;2022-08-11T00:29:13;2.63;;;2.00;;
15266;SDS011;7735;49.144;8.668;2022-08-11T00:31:44;3.73;;;2.33;;
15266;SDS011;7735;49.144;8.668;2022-08-11T00:34:14;3.07;;;2.20;;
15266;SDS011;7735;49.144;8.668;2022-08-11T00:36:44;3.07;;;2.30;;
15266;SDS011;7735;49.144;8.668;2022-08-11T00:39:14;3.03;;;2.23;;
15266;SDS011;7735;49.144;8.668;2022-08-11T00:41:43;7.87;;;2.10;;
15266;SDS011;7735;49.144;8.668;2022-08-11T00:44:38;4.00;;;2.07;;
15266;SDS011;7735;49.144;8.668;2022-08-11T00:47:17;6.20;;;2.30;;
15266;SDS011;7735;49.144;8.668;2022-08-11T00:49:57;3.50;;;2.00;;
15266;SDS011;7735;49.144;8.668;2022-08-11T00:52:32;3.13;;;2.17;;
15266;SDS011;7735;49.144;8.668;2022-08-11T00:55:24;5.00;;;2.30;;
15266;SDS011;7735;49.144;8.668;2022-08-11T01:01:25;2.43;;;2.17;;
15266;SDS011;7735;49.144;8.668;2022-08-11T01:04:15;3.87;;;2.03;;
15266;SDS011;7735;49.144;8.668;2022-08-11T01:07:07;2.27;;;2.07;;
15266;SDS011;7735;49.144;8.668;2022-08-11T01:09:58;3.17;;;2.13;;
15266;SDS011;7735;49.144;8.668;2022-08-11T01:12:43;9.23;;;2.20;;
15266;SDS011;7735;49.144;8.668;2022-08-11T01:18:31;3.50;;;2.40;;
15266;SDS011;7735;49.144;8.668;2022-08-11T01:37:01;2.43;;;2.20;;
15266;SDS011;7735;49.144;8.668;2022-08-11T01:42:51;2.97;;;2.50;;
15266;SDS011;7735;49.144;8.668;2022-08-11T01:45:47;4.33;;;2.57;;
15266;SDS011;7735;49.144;8.668;2022-08-11T01:48:21;3.30;;;2.03;;
15266;SDS011;7735;49.144;8.668;2022-08-11T01:51:04;2.97;;;2.30;;
15266;SDS011;7735;49.144;8.668;2022-08-11T01:53:46;5.37;;;2.47;;
15266;SDS011;7735;49.144;8.668;2022-08-11T01:56:26;2.63;;;2.30;;
15266;SDS011;7735;49.144;8.668;2022-08-11T01:59:04;3.70;;;2.50;;
15266;SDS011;7735;49.144;8.668;2022-08-11T02:01:44;2.70;;;2.30;;
15266;SDS011;7735;49.144;8.668;2022-08-11T02:04:38;3.27;;;2.30;;
15266;SDS011;7735;49.144;8.668;2022-08-11T02:07:15;3.03;;;2.27;;
15266;SDS011;7735;49.144;8.668;2022-08-11T02:09:52;3.83;;;2.50;;
15266;SDS011;7735;49.144;8.668;2022-08-11T02:12:38;3.63;;;2.37;;
15266;SDS011;7735;49.144;8.668;2022-08-11T02:15:11;5.00;;;2.20;;
15266;SDS011;7735;49.144;8.668;2022-08-11T02:17:55;2.67;;;2.20;;
15266;SDS011;7735;49.144;8.668;2022-08-11T02:20:30;2.63;;;2.43;;
15266;SDS011;7735;49.144;8.668;2022-08-11T02:23:26;6.50;;;2.80;;
15266;SDS011;7735;49.144;8.668;2022-08-11T02:26:13;3.80;;;2.50;;
15266;SDS011;7735;49.144;8.668;2022-08-11T02:28:58;3.33;;;2.40;;
15266;SDS011;7735;49.144;8.668;2022-08-11T02:31:33;2.97;;;2.30;;
15266;SDS011;7735;49.144;8.668;2022-08-11T02:34:27;2.93;;;2.13;;
15266;SDS011;7735;49.144;8.668;2022-08-11T02:37:13;2.47;;;2.20;;
15266;SDS011;7735;49.144;8.668;2022-08-11T02:39:53;4.27;;;2.70;;
15266;SDS011;7735;49.144;8.668;2022-08-11T02:42:37;3.97;;;2.67;;
15266;SDS011;7735;49.144;8.668;2022-08-11T02:45:11;2.90;;;2.47;;
15266;SDS011;7735;49.144;8.668;2022-08-11T02:47:45;3.27;;;2.43;;
15266;SDS011;7735;49.144;8.668;2022-08-11T02:50:34;2.60;;;2.00;;
15266;SDS011;7735;49.144;8.668;2022-08-11T02:53:19;3.13;;;2.60;;
15266;SDS011;7735;49.144;8.668;2022-08-11T02:55:56;5.10;;;2.63;;
15266;SDS011;7735;49.144;8.668;2022-08-11T02:58:43;2.70;;;2.30;;
15266;SDS011;7735;49.144;8.668;2022-08-11T03:01:40;5.43;;;2.37;;
15266;SDS011;7735;49.144;8.668;2022-08-11T03:04:16;3.77;;;2.70;;
15266;SDS011;7735;49.144;8.668;2022-08-11T03:06:48;4.27;;;2.83;;
15266;SDS011;7735;49.144;8.668;2022-08-11T03:09:18;3.20;;;2.63;;
15266;SDS011;7735;49.144;8.668;2022-08-11T03:11:56;3.50;;;2.57;;
15266;SDS011;7735;49.144;8.668;2022-08-11T03:14:51;3.50;;;2.40;;
15266;SDS011;7735;49.144;8.668;2022-08-11T03:17:36;2.60;;;2.40;;
15266;SDS011;7735;49.144;8.668;2022-08-11T03:20:10;3.13;;;2.83;;
15266;SDS011;7735;49.144;8.668;2022-08-11T03:22:50;2.70;;;2.40;;
15266;SDS011;7735;49.144;8.668;2022-08-11T03:25:25;4.33;;;2.83;;
15266;SDS011;7735;49.144;8.668;2022-08-11T03:28:00;5.77;;;2.70;;
15266;SDS011;7735;49.144;8.668;2022-08-11T03:30:41;3.70;;;2.80;;
15266;SDS011;7735;49.144;8.668;2022-08-11T03:33:17;4.93;;;2.50;;
15266;SDS011;7735;49.144;8.668;2022-08-11T03:36:08;5.87;;;3.13;;
15266;SDS011;7735;49.144;8.668;2022-08-11T03:38:46;3.70;;;2.53;;
15266;SDS011;7735;49.144;8.668;2022-08-11T03:41:22;4.23;;;2.53;;
15266;SDS011;7735;49.144;8.668;2022-08-11T03:44:17;6.53;;;2.60;;
15266;SDS011;7735;49.144;8.668;2022-08-11T03:46:58;4.53;;;2.60;;
15266;SDS011;7735;49.144;8.668;2022-08-11T03:49:45;9.20;;;3.00;;
15266;SDS011;7735;49.144;8.668;2022-08-11T03:52:27;5.07;;;2.57;;
15266;SDS011;7735;49.144;8.668;2022-08-11T03:55:08;6.13;;;2.60;;
15266;SDS011;7735;49.144;8.668;2022-08-11T03:58:06;3.17;;;2.77;;
15266;SDS011;7735;49.144;8.668;2022-08-11T04:01:06;3.63;;;2.10;;
15266;SDS011;7735;49.144;8.668;2022-08-11T04:04:09;4.50;;;2.77;;
15266;SDS011;7735;49.144;8.668;2022-08-11T04:07:05;3.50;;;3.13;;
15266;SDS011;7735;49.144;8.668;2022-08-11T04:09:56;3.70;;;2.77;;
15266;SDS011;7735;49.144;8.668;2022-08-11T04:12:58;4.47;;;2.80;;
15266;SDS011;7735;49.144;8.668;2022-08-11T04:18:49;3.70;;;2.63;;
15266;SDS011;7735;49.144;8.668;2022-08-11T04:21:50;4.90;;;2.87;;
15266;SDS011;7735;49.144;8.668;2022-08-11T04:27:40;4.17;;;3.23;;
15266;SDS011;7735;49.144;8.668;2022-08-11T04:30:20;4.60;;;2.80;;
15266;SDS011;7735;49.144;8.668;2022-08-11T04:33:01;3.80;;;3.20;;
15266;SDS011;7735;49.144;8.668;2022-08-11T04:35:51;8.17;;;3.00;;
15266;SDS011;7735;49.144;8.668;2022-08-11T04:38:33;4.87;;;3.03;;
15266;SDS011;7735;49.144;8.668;2022-08-11T04:41:27;3.40;;;3.10;;
15266;SDS011;7735;49.144;8.668;2022-08-11T04:47:45;3.53;;;2.97;;
15266;SDS011;7735;49.144;8.668;2022-08-11T04:53:57;6.60;;;3.37;;
15266;SDS011;7735;49.144;8.668;2022-08-11T04:56:47;4.47;;;3.00;;
15266;SDS011;7735;49.144;8.668;2022-08-11T04:59:39;4.17;;;3.13;;
15266;SDS011;7735;49.144;8.668;2022-08-11T05:05:45;5.83;;;2.97;;
15266;SDS011;7735;49.144;8.668;2022-08-11T05:08:40;4.20;;;2.43;;
15266;SDS011;7735;49.144;8.668;2022-08-11T05:14:37;4.23;;;2.83;;
15266;SDS011;7735;49.144;8.668;2022-08-11T05:17:36;3.37;;;2.73;;
15266;SDS011;7735;49.144;8.668;2022-08-11T05:20:39;5.67;;;2.67;;
15266;SDS011;7735;49.144;8.668;2022-08-11T05:23:29;4.23;;;3.00;;
15266;SDS011;7735;49.144;8.668;2022-08-11T05:26:17;5.20;;;3.60;;
15266;SDS011;7735;49.144;8.668;2022-08-11T05:29:22;3.50;;;3.03;;
15266;SDS011;7735;49.144;8.668;2022-08-11T05:32:11;4.53;;;3.63;;
15266;SDS011;7735;49.144;8.668;2022-08-11T05:34:58;5.57;;;3.03;;
15266;SDS011;7735;49.144;8.668;2022-08-11T05:37:32;3.53;;;2.93;;
15266;SDS011;7735;49.144;8.668;2022-08-11T05:40:04;6.70;;;3.20;;
15266;SDS011;7735;49.144;8.668;2022-08-11T05:42:54;3.23;;;2.93;;
15266;SDS011;7735;49.144;8.668;2022-08-11T05:45:41;3.67;;;2.80;;
15266;SDS011;7735;49.144;8.668;2022-08-11T05:48:28;4.83;;;3.07;;
15266;SDS011;7735;49.144;8.668;2022-08-11T05:51:20;3.20;;;2.63;;
15266;SDS011;7735;49.144;8.668;2022-08-11T05:54:06;3.17;;;2.87;;
15266;SDS011;7735;49.144;8.668;2022-08-11T05:56:53;6.73;;;3.27;;
15266;SDS011;7735;49.144;8.668;2022-08-11T05:59:21;3.77;;;2.70;;
15266;SDS011;7735;49.144;8.668;2022-08-11T06:01:50;5.57;;;3.07;;
15266;SDS011;7735;49.144;8.668;2022-08-11T06:04:19;9.30;;;5.10;;
15266;SDS011;7735;49.144;8.668;2022-08-11T06:06:48;9.90;;;2.87;;
15266;SDS011;7735;49.144;8.668;2022-08-11T06:09:23;4.97;;;3.10;;
15266;SDS011;7735;49.144;8.668;2022-08-11T06:11:53;6.80;;;3.10;;
15266;SDS011;7735;49.144;8.668;2022-08-11T06:14:23;4.03;;;2.53;;
15266;SDS011;7735;49.144;8.668;2022-08-11T06:16:54;2.80;;;2.60;;
15266;SDS011;7735;49.144;8.668;2022-08-11T06:19:30;4.53;;;2.47;;
15266;SDS011;7735;49.144;8.668;2022-08-11T06:22:00;6.90;;;2.90;;
15266;SDS011;7735;49.144;8.668;2022-08-11T06:24:28;5.37;;;2.83;;
15266;SDS011;7735;49.144;8.668;2022-08-11T06:26:56;3.93;;;2.60;;
15266;SDS011;7735;49.144;8.668;2022-08-11T06:29:23;5.33;;;2.70;;
15266;SDS011;7735;49.144;8.668;2022-08-11T06:31:54;6.23;;;2.83;;
15266;SDS011;7735;49.144;8.668;2022-08-11T06:34:35;3.20;;;2.87;;
15266;SDS011;7735;49.144;8.668;2022-08-11T06:37:17;4.20;;;2.50;;
15266;SDS011;7735;49.144;8.668;2022-08-11T06:39:50;4.80;;;2.70;;
15266;SDS011;7735;49.144;8.668;2022-08-11T06:42:31;2.67;;;2.47;;
15266;SDS011;7735;49.144;8.668;2022-08-11T06:45:05;4.63;;;2.70;;
15266;SDS011;7735;49.144;8.668;2022-08-11T06:47:42;4.50;;;2.77;;
15266;SDS011;7735;49.144;8.668;2022-08-11T06:50:14;2.93;;;2.57;;
15266;SDS011;7735;49.144;8.668;2022-08-11T06:52:59;7.83;;;3.10;;
15266;SDS011;7735;49.144;8.668;2022-08-11T06:55:34;2.63;;;2.43;;
15266;SDS011;7735;49.144;8.668;2022-08-11T06:58:24;2.33;;;2.13;;
15266;SDS011;7735;49.144;8.668;2022-08-11T07:01:11;4.33;;;2.57;;
15266;SDS011;7735;49.144;8.668;2022-08-11T07:03:44;6.20;;;2.50;;
15266;SDS011;7735;49.144;8.668;2022-08-11T07:06:20;3.17;;;2.30;;
15266;SDS011;7735;49.144;8.668;2022-08-11T07:12:18;3.47;;;2.53;;
15266;SDS011;7735;49.144;8.668;2022-08-11T07:15:26;6.20;;;3.43;;
15266;SDS011;7735;49.144;8.668;2022-08-11T07:18:10;5.23;;;3.23;;
15266;SDS011;7735;49.144;8.668;2022-08-11T07:21:13;3.30;;;2.60;;
15266;SDS011;7735;49.144;8.668;2022-08-11T07:24:02;5.33;;;2.50;;
15266;SDS011;7735;49.144;8.668;2022-08-11T07:26:54;2.90;;;2.40;;
15266;SDS011;7735;49.144;8.668;2022-08-11T07:29:38;4.20;;;2.80;;
15266;SDS011;7735;49.144;8.668;2022-08-11T07:32:13;3.90;;;2.70;;
15266;SDS011;7735;49.144;8.668;2022-08-11T07:34:46;5.23;;;2.70;;
15266;SDS011;7735;49.144;8.668;2022-08-11T07:37:19;5.53;;;2.67;;
15266;SDS011;7735;49.144;8.668;2022-08-11T07:39:49;2.87;;;2.50;;
15266;SDS011;7735;49.144;8.668;2022-08-11T07:42:19;3.50;;;2.87;;
15266;SDS011;7735;49.144;8.668;2022-08-11T07:44:52;3.07;;;2.77;;
15266;SDS011;7735;49.144;8.668;2022-08-11T07:47:38;5.27;;;2.60;;
15266;SDS011;7735;49.144;8.668;2022-08-11T07:50:24;4.63;;;2.70;;
15266;SDS011;7735;49.144;8.668;2022-08-11T07:53:10;4.90;;;2.90;;
15266;SDS011;7735;49.144;8.668;2022-08-11T07:55:42;7.53;;;3.77;;
15266;SDS011;7735;49.144;8.668;2022-08-11T07:58:12;5.50;;;2.97;;
15266;SDS011;7735;49.144;8.668;2022-08-11T08:00:57;4.87;;;2.70;;
15266;SDS011;7735;49.144;8.668;2022-08-11T08:03:41;5.37;;;2.80;;
15266;SDS011;7735;49.144;8.668;2022-08-11T08:06:26;3.37;;;2.60;;
15266;SDS011;7735;49.144;8.668;2022-08-11T08:09:14;4.77;;;2.90;;
15266;SDS011;7735;49.144;8.668;2022-08-11T08:12:01;5.43;;;2.70;;
15266;SDS011;7735;49.144;8.668;2022-08-11T08:14:47;3.67;;;2.83;;
15266;SDS011;7735;49.144;8.668;2022-08-11T08:17:32;3.30;;;2.97;;
15266;SDS011;7735;49.144;8.668;2022-08-11T08:20:22;5.67;;;2.43;;
15266;SDS011;7735;49.144;8.668;2022-08-11T08:22:51;4.83;;;3.07;;
15266;SDS011;7735;49.144;8.668;2022-08-11T08:25:22;5.43;;;3.33;;
15266;SDS011;7735;49.144;8.668;2022-08-11T08:27:50;5.87;;;2.73;;
15266;SDS011;7735;49.144;8.668;2022-08-11T08:30:18;4.20;;;2.80;;
15266;SDS011;7735;49.144;8.668;2022-08-11T08:33:07;3.73;;;3.03;;
15266;SDS011;7735;49.144;8.668;2022-08-11T08:35:35;5.43;;;2.60;;
15266;SDS011;7735;49.144;8.668;2022-08-11T08:38:02;3.27;;;2.50;;
15266;SDS011;7735;49.144;8.668;2022-08-11T08:40:31;3.70;;;2.83;;
15266;SDS011;7735;49.144;8.668;2022-08-11T08:43:06;5.20;;;2.80;;
15266;SDS011;7735;49.144;8.668;2022-08-11T08:45:36;4.33;;;2.80;;
15266;SDS011;7735;49.144;8.668;2022-08-11T08:48:07;6.17;;;3.03;;
15266;SDS011;7735;49.144;8.668;2022-08-11T08:50:50;3.03;;;2.27;;
15266;SDS011;7735;49.144;8.668;2022-08-11T08:53:40;3.40;;;2.57;;
15266;SDS011;7735;49.144;8.668;2022-08-11T08:56:19;6.23;;;2.93;;
15266;SDS011;7735;49.144;8.668;2022-08-11T08:58:53;3.13;;;2.73;;
15266;SDS011;7735;49.144;8.668;2022-08-11T09:01:24;7.40;;;2.77;;
15266;SDS011;7735;49.144;8.668;2022-08-11T09:03:58;3.40;;;2.50;;
15266;SDS011;7735;49.144;8.668;2022-08-11T09:06:25;4.67;;;2.67;;
15266;SDS011;7735;49.144;8.668;2022-08-11T09:08:58;3.30;;;2.80;;
15266;SDS011;7735;49.144;8.668;2022-08-11T09:11:27;8.87;;;2.63;;
15266;SDS011;7735;49.144;8.668;2022-08-11T09:14:11;7.33;;;3.10;;
15266;SDS011;7735;49.144;8.668;2022-08-11T09:16:38;4.83;;;3.00;;
15266;SDS011;7735;49.144;8.668;2022-08-11T09:19:05;6.70;;;2.50;;
15266;SDS011;7735;49.144;8.668;2022-08-11T09:21:33;5.90;;;2.80;;
15266;SDS011;7735;49.144;8.668;2022-08-11T09:24:00;5.80;;;2.87;;
15266;SDS011;7735;49.144;8.668;2022-08-11T09:26:46;4.10;;;3.67;;
15266;SDS011;7735;49.144;8.668;2022-08-11T09:29:25;5.43;;;3.03;;
15266;SDS011;7735;49.144;8.668;2022-08-11T09:31:52;4.00;;;2.77;;
15266;SDS011;7735;49.144;8.668;2022-08-11T09:34:20;4.23;;;3.00;;
15266;SDS011;7735;49.144;8.668;2022-08-11T09:36:47;5.83;;;3.17;;
15266;SDS011;7735;49.144;8.668;2022-08-11T09:39:35;5.57;;;2.90;;
15266;SDS011;7735;49.144;8.668;2022-08-11T09:42:22;4.37;;;2.47;;
15266;SDS011;7735;49.144;8.668;2022-08-11T09:45:11;2.90;;;2.60;;
15266;SDS011;7735;49.144;8.668;2022-08-11T09:47:37;4.43;;;2.50;;
15266;SDS011;7735;49.144;8.668;2022-08-11T09:50:06;8.57;;;2.40;;
15266;SDS011;7735;49.144;8.668;2022-08-11T09:52:36;2.43;;;2.23;;
15266;SDS011;7735;49.144;8.668;2022-08-11T09:55:05;5.10;;;2.20;;
15266;SDS011;7735;49.144;8.668;2022-08-11T09:57:38;4.60;;;2.47;;
15266;SDS011;7735;49.144;8.668;2022-08-11T10:00:30;7.43;;;2.37;;
15266;SDS011;7735;49.144;8.668;2022-08-11T10:03:01;2.60;;;2.00;;
15266;SDS011;7735;49.144;8.668;2022-08-11T10:05:31;3.63;;;2.33;;
15266;SDS011;7735;49.144;8.668;2022-08-11T10:08:16;3.47;;;2.30;;
15266;SDS011;7735;49.144;8.668;2022-08-11T10:10:44;4.73;;;2.27;;
15266;SDS011;7735;49.144;8.668;2022-08-11T10:13:32;4.83;;;2.20;;
15266;SDS011;7735;49.144;8.668;2022-08-11T10:16:24;4.85;;;2.40;;
15266;SDS011;7735;49.144;8.668;2022-08-11T10:18:57;6.57;;;2.42;;
15266;SDS011;7735;49.144;8.668;2022-08-11T10:21:27;9.13;;;2.40;;
15266;SDS011;7735;49.144;8.668;2022-08-11T10:24:01;3.80;;;2.10;;
15266;SDS011;7735;49.144;8.668;2022-08-11T10:26:56;2.50;;;2.20;;
15266;SDS011;7735;49.144;8.668;2022-08-11T10:29:26;3.97;;;2.13;;
15266;SDS011;7735;49.144;8.668;2022-08-11T10:32:13;4.55;;;4.15;;
15266;SDS011;7735;49.144;8.668;2022-08-11T10:35:02;3.13;;;2.27;;
15266;SDS011;7735;49.144;8.668;2022-08-11T10:37:33;3.85;;;2.00;;
15266;SDS011;7735;49.144;8.668;2022-08-11T10:40:07;6.32;;;2.40;;
15266;SDS011;7735;49.144;8.668;2022-08-11T10:42:35;2.75;;;2.00;;
15266;SDS011;7735;49.144;8.668;2022-08-11T10:45:22;2.60;;;2.20;;
15266;SDS011;7735;49.144;8.668;2022-08-11T10:48:07;3.15;;;2.28;;
15266;SDS011;7735;49.144;8.668;2022-08-11T10:50:34;2.35;;;2.15;;
15266;SDS011;7735;49.144;8.668;2022-08-11T10:53:19;5.18;;;2.38;;
15266;SDS011;7735;49.144;8.668;2022-08-11T10:56:03;3.50;;;2.03;;
15266;SDS011;7735;49.144;8.668;2022-08-11T10:58:48;2.55;;;1.85;;
15266;SDS011;7735;49.144;8.668;2022-08-11T11:01:20;3.75;;;2.13;;
15266;SDS011;7735;49.144;8.668;2022-08-11T11:03:49;2.97;;;1.95;;
15266;SDS011;7735;49.144;8.668;2022-08-11T11:06:20;3.05;;;1.95;;
15266;SDS011;7735;49.144;8.668;2022-08-11T11:08:51;2.50;;;2.00;;
15266;SDS011;7735;49.144;8.668;2022-08-11T11:11:22;2.17;;;1.98;;
15266;SDS011;7735;49.144;8.668;2022-08-11T11:14:14;1.90;;;1.70;;
15266;SDS011;7735;49.144;8.668;2022-08-11T11:17:02;2.15;;;1.85;;
15266;SDS011;7735;49.144;8.668;2022-08-11T11:19:48;7.88;;;2.00;;
15266;SDS011;7735;49.144;8.668;2022-08-11T11:22:20;2.65;;;1.92;;
15266;SDS011;7735;49.144;8.668;2022-08-11T11:25:04;3.92;;;1.70;;
15266;SDS011;7735;49.144;8.668;2022-08-11T11:27:44;2.78;;;2.13;;
15266;SDS011;7735;49.144;8.668;2022-08-11T11:30:20;2.33;;;2.13;;
15266;SDS011;7735;49.144;8.668;2022-08-11T11:32:55;3.80;;;2.05;;
15266;SDS011;7735;49.144;8.668;2022-08-11T11:35:34;1.90;;;1.80;;
15266;SDS011;7735;49.144;8.668;2022-08-11T11:38:08;2.80;;;1.98;;
15266;SDS011;7735;49.144;8.668;2022-08-11T11:40:36;3.42;;;2.00;;
15266;SDS011;7735;49.144;8.668;2022-08-11T11:43:05;2.13;;;1.77;;
15266;SDS011;7735;49.144;8.668;2022-08-11T11:45:32;2.10;;;1.60;;
15266;SDS011;7735;49.144;8.668;2022-08-11T11:48:00;4.30;;;2.30;;
15266;SDS011;7735;49.144;8.668;2022-08-11T11:50:29;4.10;;;2.10;;
15266;SDS011;7735;49.144;8.668;2022-08-11T11:52:58;2.92;;;2.10;;
15266;SDS011;7735;49.144;8.668;2022-08-11T11:55:26;3.47;;;2.22;;
15266;SDS011;7735;49.144;8.668;2022-08-11T11:57:54;2.85;;;1.80;;
15266;SDS011;7735;49.144;8.668;2022-08-11T12:00:42;5.25;;;2.10;;
15266;SDS011;7735;49.144;8.668;2022-08-11T12:03:28;4.15;;;2.00;;
15266;SDS011;7735;49.144;8.668;2022-08-11T12:05:57;5.22;;;2.10;;
15266;SDS011;7735;49.144;8.668;2022-08-11T12:08:24;2.65;;;1.92;;
15266;SDS011;7735;49.144;8.668;2022-08-11T12:10:54;1.63;;;1.52;;
15266;SDS011;7735;49.144;8.668;2022-08-11T12:13:43;8.63;;;2.33;;
15266;SDS011;7735;49.144;8.668;2022-08-11T12:16:13;2.40;;;1.88;;
15266;SDS011;7735;49.144;8.668;2022-08-11T12:18:44;2.92;;;1.90;;
15266;SDS011;7735;49.144;8.668;2022-08-11T12:21:17;2.45;;;1.98;;
15266;SDS011;7735;49.144;8.668;2022-08-11T12:23:45;6.00;;;2.10;;
15266;SDS011;7735;49.144;8.668;2022-08-11T12:26:40;4.82;;;1.90;;
15266;SDS011;7735;49.144;8.668;2022-08-11T12:29:25;3.50;;;2.15;;
15266;SDS011;7735;49.144;8.668;2022-08-11T12:31:53;3.08;;;2.10;;
15266;SDS011;7735;49.144;8.668;2022-08-11T12:34:25;3.78;;;2.50;;
15266;SDS011;7735;49.144;8.668;2022-08-11T12:36:54;3.60;;;2.00;;
15266;SDS011;7735;49.144;8.668;2022-08-11T12:39:23;3.90;;;1.90;;
15266;SDS011;7735;49.144;8.668;2022-08-11T12:42:09;6.23;;;2.20;;
15266;SDS011;7735;49.144;8.668;2022-08-11T12:44:56;2.92;;;2.05;;
15266;SDS011;7735;49.144;8.668;2022-08-11T12:47:42;2.75;;;2.10;;
15266;SDS011;7735;49.144;8.668;2022-08-11T12:50:32;1.90;;;1.70;;
15266;SDS011;7735;49.144;8.668;2022-08-11T12:53:25;4.47;;;2.28;;
15266;SDS011;7735;49.144;8.668;2022-08-11T12:55:54;2.28;;;1.90;;
15266;SDS011;7735;49.144;8.668;2022-08-11T12:58:49;2.85;;;1.90;;
15266;SDS011;7735;49.144;8.668;2022-08-11T13:01:31;8.07;;;2.10;;
15266;SDS011;7735;49.144;8.668;2022-08-11T13:04:16;2.22;;;1.90;;
15266;SDS011;7735;49.144;8.668;2022-08-11T13:07:01;6.65;;;2.20;;
15266;SDS011;7735;49.144;8.668;2022-08-11T13:09:29;2.38;;;2.05;;
15266;SDS011;7735;49.144;8.668;2022-08-11T13:11:56;2.88;;;2.00;;
15266;SDS011;7735;49.144;8.668;2022-08-11T13:14:41;2.78;;;2.15;;
15266;SDS011;7735;49.144;8.668;2022-08-11T13:17:27;2.90;;;2.05;;
15266;SDS011;7735;49.144;8.668;2022-08-11T13:19:55;2.40;;;2.17;;
15266;SDS011;7735;49.144;8.668;2022-08-11T13:22:25;2.20;;;2.00;;
15266;SDS011;7735;49.144;8.668;2022-08-11T13:24:52;2.97;;;2.10;;
15266;SDS011;7735;49.144;8.668;2022-08-11T13:27:22;2.60;;;1.90;;
15266;SDS011;7735;49.144;8.668;2022-08-11T13:33:14;4.28;;;2.90;;
15266;SDS011;7735;49.144;8.668;2022-08-11T13:35:42;7.07;;;2.88;;
15266;SDS011;7735;49.144;8.668;2022-08-11T13:38:13;4.35;;;1.90;;
15266;SDS011;7735;49.144;8.668;2022-08-11T13:40:41;2.45;;;2.08;;
15266;SDS011;7735;49.144;8.668;2022-08-11T13:43:09;4.00;;;2.35;;
15266;SDS011;7735;49.144;8.668;2022-08-11T13:45:44;3.03;;;2.25;;
15266;SDS011;7735;49.144;8.668;2022-08-11T13:48:18;4.10;;;2.25;;
15266;SDS011;7735;49.144;8.668;2022-08-11T13:50:48;4.18;;;2.40;;
15266;SDS011;7735;49.144;8.668;2022-08-11T13:53:36;2.60;;;2.17;;
15266;SDS011;7735;49.144;8.668;2022-08-11T13:56:11;2.95;;;1.90;;
15266;SDS011;7735;49.144;8.668;2022-08-11T13:58:41;2.95;;;1.95;;
15266;SDS011;7735;49.144;8.668;2022-08-11T14:01:08;2.95;;;2.10;;
15266;SDS011;7735;49.144;8.668;2022-08-11T14:03:36;3.03;;;1.95;;
15266;SDS011;7735;49.144;8.668;2022-08-11T14:06:22;7.30;;;2.78;;
15266;SDS011;7735;49.144;8.668;2022-08-11T14:08:51;4.28;;;2.17;;
15266;SDS011;7735;49.144;8.668;2022-08-11T14:11:19;5.25;;;1.95;;
15266;SDS011;7735;49.144;8.668;2022-08-11T14:14:20;2.25;;;1.80;;
15266;SDS011;7735;49.144;8.668;2022-08-11T14:16:49;2.20;;;1.95;;
15266;SDS011;7735;49.144;8.668;2022-08-11T14:19:20;3.30;;;2.13;;
15266;SDS011;7735;49.144;8.668;2022-08-11T14:21:50;2.00;;;1.80;;
15266;SDS011;7735;49.144;8.668;2022-08-11T14:24:37;3.33;;;2.00;;
15266;SDS011;7735;49.144;8.668;2022-08-11T14:27:05;2.72;;;2.00;;
15266;SDS011;7735;49.144;8.668;2022-08-11T14:29:33;3.33;;;2.40;;
15266;SDS011;7735;49.144;8.668;2022-08-11T14:32:04;6.32;;;2.60;;
15266;SDS011;7735;49.144;8.668;2022-08-11T14:34:32;4.60;;;2.53;;
15266;SDS011;7735;49.144;8.668;2022-08-11T14:37:01;4.75;;;2.63;;
15266;SDS011;7735;49.144;8.668;2022-08-11T14:39:31;2.90;;;2.60;;
15266;SDS011;7735;49.144;8.668;2022-08-11T14:42:02;7.05;;;2.75;;
15266;SDS011;7735;49.144;8.668;2022-08-11T14:44:49;5.00;;;2.58;;
15266;SDS011;7735;49.144;8.668;2022-08-11T14:47:44;5.22;;;2.75;;
15266;SDS011;7735;49.144;8.668;2022-08-11T14:50:14;3.97;;;3.08;;
15266;SDS011;7735;49.144;8.668;2022-08-11T14:52:48;4.47;;;2.40;;
15266;SDS011;7735;49.144;8.668;2022-08-11T14:55:19;5.43;;;2.72;;
15266;SDS011;7735;49.144;8.668;2022-08-11T14:58:06;2.55;;;2.35;;
15266;SDS011;7735;49.144;8.668;2022-08-11T15:00:38;3.00;;;2.30;;
15266;SDS011;7735;49.144;8.668;2022-08-11T15:03:13;2.60;;;2.17;;
15266;SDS011;7735;49.144;8.668;2022-08-11T15:05:42;3.13;;;2.83;;
15266;SDS011;7735;49.144;8.668;2022-08-11T15:08:14;2.85;;;2.50;;
15266;SDS011;7735;49.144;8.668;2022-08-11T15:11:15;5.63;;;1.90;;
15266;SDS011;7735;49.144;8.668;2022-08-11T15:14:03;6.00;;;1.90;;
15266;SDS011;7735;49.144;8.668;2022-08-11T15:16:32;3.78;;;2.08;;
15266;SDS011;7735;49.144;8.668;2022-08-11T15:19:18;4.05;;;2.00;;
15266;SDS011;7735;49.144;8.668;2022-08-11T15:21:47;3.97;;;2.13;;
15266;SDS011;7735;49.144;8.668;2022-08-11T15:24:32;2.17;;;1.98;;
15266;SDS011;7735;49.144;8.668;2022-08-11T15:27:00;2.90;;;2.20;;
15266;SDS011;7735;49.144;8.668;2022-08-11T15:29:49;3.30;;;2.10;;
15266;SDS011;7735;49.144;8.668;2022-08-11T15:32:36;3.13;;;1.92;;
15266;SDS011;7735;49.144;8.668;2022-08-11T15:35:23;4.55;;;1.83;;
15266;SDS011;7735;49.144;8.668;2022-08-11T15:38:10;2.38;;;2.00;;
15266;SDS011;7735;49.144;8.668;2022-08-11T15:40:47;2.08;;;1.83;;
15266;SDS011;7735;49.144;8.668;2022-08-11T15:43:36;3.83;;;2.30;;
15266;SDS011;7735;49.144;8.668;2022-08-11T15:46:38;3.50;;;2.20;;
15266;SDS011;7735;49.144;8.668;2022-08-11T15:49:13;3.25;;;2.13;;
15266;SDS011;7735;49.144;8.668;2022-08-11T15:51:44;3.28;;;2.00;;
15266;SDS011;7735;49.144;8.668;2022-08-11T15:54:15;2.17;;;1.95;;
15266;SDS011;7735;49.144;8.668;2022-08-11T15:56:51;2.20;;;2.00;;
15266;SDS011;7735;49.144;8.668;2022-08-11T15:59:28;2.85;;;2.10;;
15266;SDS011;7735;49.144;8.668;2022-08-11T16:02:21;4.45;;;2.33;;
15266;SDS011;7735;49.144;8.668;2022-08-11T16:05:09;5.50;;;2.03;;
15266;SDS011;7735;49.144;8.668;2022-08-11T16:07:38;2.92;;;2.20;;
15266;SDS011;7735;49.144;8.668;2022-08-11T16:10:15;6.97;;;3.15;;
15266;SDS011;7735;49.144;8.668;2022-08-11T16:12:46;4.60;;;2.45;;
15266;SDS011;7735;49.144;8.668;2022-08-11T16:15:38;2.17;;;1.80;;
15266;SDS011;7735;49.144;8.668;2022-08-11T16:18:29;2.92;;;2.30;;
15266;SDS011;7735;49.144;8.668;2022-08-11T16:21:06;2.03;;;1.83;;
15266;SDS011;7735;49.144;8.668;2022-08-11T16:23:35;2.70;;;2.20;;
15266;SDS011;7735;49.144;8.668;2022-08-11T16:26:05;4.78;;;1.88;;
15266;SDS011;7735;49.144;8.668;2022-08-11T16:28:34;3.30;;;2.00;;
15266;SDS011;7735;49.144;8.668;2022-08-11T16:31:01;4.68;;;2.92;;
15266;SDS011;7735;49.144;8.668;2022-08-11T16:33:36;2.75;;;2.28;;
15266;SDS011;7735;49.144;8.668;2022-08-11T16:36:15;4.47;;;2.42;;
15266;SDS011;7735;49.144;8.668;2022-08-11T16:39:01;3.75;;;2.10;;
15266;SDS011;7735;49.144;8.668;2022-08-11T16:41:30;5.00;;;2.47;;
15266;SDS011;7735;49.144;8.668;2022-08-11T16:44:16;3.53;;;2.00;;
15266;SDS011;7735;49.144;8.668;2022-08-11T16:47:02;2.65;;;2.17;;
15266;SDS011;7735;49.144;8.668;2022-08-11T16:49:34;7.13;;;2.70;;
15266;SDS011;7735;49.144;8.668;2022-08-11T16:52:03;10.48;;;2.83;;
15266;SDS011;7735;49.144;8.668;2022-08-11T16:54:35;4.57;;;2.20;;
15266;SDS011;7735;49.144;8.668;2022-08-11T16:57:03;4.60;;;2.35;;
15266;SDS011;7735;49.144;8.668;2022-08-11T16:59:45;3.22;;;2.22;;
15266;SDS011;7735;49.144;8.668;2022-08-11T17:02:14;3.55;;;2.22;;